Time,TemperatureF,DewpointF,PressureIn,WindDirection,WindDirectionDegrees,WindSpeedMPH,WindSpeedGustMPH,Humidity,HourlyPrecipIn,Conditions,Clouds,dailyrainin,SoftwareType,DateUTC
2013-08-15 00:00:00,64.8,59.5,30.04,East,81,0.0,0.0,83,0.00,,,0.00,Wunderground v.1.15,2013-08-15 04:00:00,
2013-08-15 00:10:00,64.6,59.0,30.04,East,81,0.0,0.0,82,0.00,,,0.00,Wunderground v.1.15,2013-08-15 04:10:00,
2013-08-15 00:20:00,64.3,59.0,30.04,East,81,0.0,0.0,83,0.00,,,0.00,Wunderground v.1.15,2013-08-15 04:20:00,
2013-08-15 00:30:00,64.1,59.2,30.04,East,81,0.0,0.0,84,0.00,,,0.00,Wunderground v.1.15,2013-08-15 04:30:00,
2013-08-15 00:40:00,63.9,58.6,30.03,East,81,0.0,0.0,83,0.00,,,0.00,Wunderground v.1.15,2013-08-15 04:40:00,
2013-08-15 00:50:00,63.7,58.8,30.04,East,81,0.0,0.0,84,0.00,,,0.00,Wunderground v.1.15,2013-08-15 04:50:00,
2013-08-15 01:00:00,63.5,58.6,30.03,East,81,0.0,0.0,84,0.00,,,0.00,Wunderground v.1.15,2013-08-15 05:00:00,
2013-08-15 01:10:00,63.5,59.2,30.03,East,81,0.0,0.0,86,0.00,,,0.00,Wunderground v.1.15,2013-08-15 05:10:00,
2013-08-15 01:20:00,63.5,58.6,30.03,East,81,0.0,0.0,84,0.00,,,0.00,Wunderground v.1.15,2013-08-15 05:20:00,
2013-08-15 01:30:00,63.5,58.6,30.04,East,81,0.0,0.0,84,0.00,,,0.00,Wunderground v.1.15,2013-08-15 05:30:00,
2013-08-15 01:40:00,63.6,58.7,30.04,East,81,0.0,0.0,84,0.00,,,0.00,Wunderground v.1.15,2013-08-15 05:40:00,
2013-08-15 01:50:00,63.7,58.1,30.04,East,81,0.0,0.0,82,0.00,,,0.00,Wunderground v.1.15,2013-08-15 05:50:00,
2013-08-15 02:00:00,64.1,58.5,30.04,East,81,0.0,0.0,82,0.00,,,0.00,Wunderground v.1.15,2013-08-15 06:00:00,
2013-08-15 02:10:00,64.3,59.0,30.04,East,81,0.0,0.0,83,0.00,,,0.00,Wunderground v.1.15,2013-08-15 06:10:00,
2013-08-15 02:20:00,64.5,59.6,30.03,East,81,0.0,0.0,84,0.00,,,0.00,Wunderground v.1.15,2013-08-15 06:20:00,
2013-08-15 02:30:00,64.8,59.2,30.03,East,81,0.0,0.0,82,0.00,,,0.00,Wunderground v.1.15,2013-08-15 06:30:00,
2013-08-15 02:40:00,65.2,58.9,30.03,East,81,0.0,0.0,80,0.00,,,0.00,Wunderground v.1.15,2013-08-15 06:40:00,
2013-08-15 02:50:00,65.4,58.7,30.03,East,81,0.0,0.0,79,0.00,,,0.00,Wunderground v.1.15,2013-08-15 06:50:00,
2013-08-15 03:00:00,65.5,58.8,30.03,East,81,0.0,0.0,79,0.00,,,0.00,Wunderground v.1.15,2013-08-15 07:00:00,
2013-08-15 03:10:00,65.6,58.9,30.03,East,81,0.0,0.0,79,0.00,,,0.00,Wunderground v.1.15,2013-08-15 07:10:00,
2013-08-15 03:20:00,65.6,58.6,30.03,East,81,0.0,0.0,78,0.00,,,0.00,Wunderground v.1.15,2013-08-15 07:20:00,
2013-08-15 03:30:00,65.6,58.9,30.03,East,81,0.0,0.0,79,0.00,,,0.00,Wunderground v.1.15,2013-08-15 07:30:00,
2013-08-15 03:40:00,65.4,59.1,30.03,East,81,0.0,0.0,80,0.00,,,0.00,Wunderground v.1.15,2013-08-15 07:40:00,
2013-08-15 03:50:00,65.1,59.1,30.02,East,81,0.0,0.0,81,0.00,,,0.00,Wunderground v.1.15,2013-08-15 07:50:00,
2013-08-15 04:00:00,64.8,59.2,30.03,East,81,0.0,0.0,82,0.00,,,0.00,Wunderground v.1.15,2013-08-15 08:00:00,
2013-08-15 04:10:00,64.5,58.9,30.03,East,81,0.0,0.0,82,0.00,,,0.00,Wunderground v.1.15,2013-08-15 08:10:00,
2013-08-15 04:20:00,64.3,58.7,30.02,East,81,0.0,0.0,82,0.00,,,0.00,Wunderground v.1.15,2013-08-15 08:20:00,
2013-08-15 04:30:00,64.3,59.0,30.02,East,81,0.0,0.0,83,0.00,,,0.00,Wunderground v.1.15,2013-08-15 08:30:00,
2013-08-15 04:40:00,64.3,59.0,30.03,East,81,0.0,0.0,83,0.00,,,0.00,Wunderground v.1.15,2013-08-15 08:40:00,
2013-08-15 04:50:00,64.3,58.7,30.02,East,81,0.0,0.0,82,0.00,,,0.00,Wunderground v.1.15,2013-08-15 08:50:00,
2013-08-15 05:00:00,64.4,58.8,30.03,East,81,0.0,0.0,82,0.00,,,0.00,Wunderground v.1.15,2013-08-15 09:00:00,
2013-08-15 05:10:00,64.3,58.7,30.02,East,81,0.0,0.0,82,0.00,,,0.00,Wunderground v.1.15,2013-08-15 09:10:00,
2013-08-15 05:20:00,64.3,58.7,30.02,East,81,0.0,0.0,82,0.00,,,0.00,Wunderground v.1.15,2013-08-15 09:20:00,
2013-08-15 05:30:00,64.1,58.8,30.02,East,81,0.0,0.0,83,0.00,,,0.00,Wunderground v.1.15,2013-08-15 09:30:00,
2013-08-15 05:40:00,64.0,59.1,30.03,East,81,0.0,0.0,84,0.00,,,0.00,Wunderground v.1.15,2013-08-15 09:40:00,
2013-08-15 05:50:00,63.8,59.2,30.03,East,81,0.0,0.0,85,0.00,,,0.00,Wunderground v.1.15,2013-08-15 09:50:00,
2013-08-15 06:00:00,63.7,58.8,30.03,East,81,0.0,0.0,84,0.00,,,0.00,Wunderground v.1.15,2013-08-15 10:00:00,
2013-08-15 06:10:00,63.6,59.0,30.03,East,81,0.0,0.0,85,0.00,,,0.00,Wunderground v.1.15,2013-08-15 10:10:00,
2013-08-15 06:20:00,63.6,59.0,30.03,East,81,0.0,0.0,85,0.00,,,0.00,Wunderground v.1.15,2013-08-15 10:20:00,
2013-08-15 06:30:00,63.6,59.0,30.03,East,81,0.0,0.0,85,0.00,,,0.00,Wunderground v.1.15,2013-08-15 10:30:00,
2013-08-15 06:40:00,63.6,59.0,30.04,East,81,0.0,0.0,85,0.00,,,0.00,Wunderground v.1.15,2013-08-15 10:40:00,
2013-08-15 06:50:00,63.6,59.0,30.03,East,81,0.0,0.0,85,0.00,,,0.00,Wunderground v.1.15,2013-08-15 10:50:00,
2013-08-15 07:00:00,63.6,58.7,30.04,East,81,0.0,0.0,84,0.00,,,0.00,Wunderground v.1.15,2013-08-15 11:00:00,
2013-08-15 07:10:00,63.7,58.8,30.05,East,81,0.0,0.0,84,0.00,,,0.00,Wunderground v.1.15,2013-08-15 11:10:00,
2013-08-15 07:20:00,63.7,58.8,30.05,East,81,0.0,0.0,84,0.00,,,0.00,Wunderground v.1.15,2013-08-15 11:20:00,
2013-08-15 07:30:00,63.7,58.4,30.05,East,81,0.0,0.0,83,0.00,,,0.00,Wunderground v.1.15,2013-08-15 11:30:00,
2013-08-15 07:40:00,63.7,58.4,30.06,East,81,0.0,0.0,83,0.00,,,0.00,Wunderground v.1.15,2013-08-15 11:40:00,
2013-08-15 07:50:00,63.7,58.4,30.06,East,81,0.0,0.0,83,0.00,,,0.00,Wunderground v.1.15,2013-08-15 11:50:00,
2013-08-15 08:00:00,63.8,58.5,30.06,East,81,0.0,0.0,83,0.00,,,0.00,Wunderground v.1.15,2013-08-15 12:00:00,
2013-08-15 08:10:00,63.8,58.5,30.06,East,81,0.0,0.0,83,0.00,,,0.00,Wunderground v.1.15,2013-08-15 12:10:00,
2013-08-15 08:20:00,63.8,58.9,30.06,East,81,0.0,0.0,84,0.00,,,0.00,Wunderground v.1.15,2013-08-15 12:20:00,
2013-08-15 08:30:00,63.7,58.8,30.06,East,81,0.0,0.0,84,0.00,,,0.00,Wunderground v.1.15,2013-08-15 12:30:00,
2013-08-15 08:40:00,63.7,58.8,30.07,East,81,0.0,0.0,84,0.00,,,0.00,Wunderground v.1.15,2013-08-15 12:40:00,
2013-08-15 08:50:00,63.7,58.8,30.07,East,81,0.0,0.0,84,0.00,,,0.00,Wunderground v.1.15,2013-08-15 12:50:00,
2013-08-15 09:00:00,63.9,59.0,30.07,East,81,0.0,0.0,84,0.00,,,0.00,Wunderground v.1.15,2013-08-15 13:00:00,
2013-08-15 09:10:00,64.1,58.8,30.07,East,81,0.0,0.0,83,0.00,,,0.00,Wunderground v.1.15,2013-08-15 13:10:00,
2013-08-15 09:20:00,64.3,58.7,30.07,East,80,0.0,1.0,82,0.00,,,0.00,Wunderground v.1.15,2013-08-15 13:20:00,
2013-08-15 09:30:00,64.6,59.3,30.07,East,80,0.0,0.0,83,0.00,,,0.00,Wunderground v.1.15,2013-08-15 13:30:00,
2013-08-15 09:40:00,64.8,59.5,30.07,East,79,0.0,0.0,83,0.00,,,0.00,Wunderground v.1.15,2013-08-15 13:40:00,
2013-08-15 09:50:00,65.0,59.4,30.07,ENE,71,0.0,0.0,82,0.00,,,0.00,Wunderground v.1.15,2013-08-15 13:50:00,
2013-08-15 10:00:00,65.1,59.8,30.07,ENE,71,0.0,0.0,83,0.00,,,0.00,Wunderground v.1.15,2013-08-15 14:00:00,
2013-08-15 10:10:00,65.2,59.9,30.07,ENE,71,0.0,0.0,83,0.00,,,0.00,Wunderground v.1.15,2013-08-15 14:10:00,
2013-08-15 10:20:00,65.4,60.1,30.08,ENE,71,0.0,0.0,83,0.00,,,0.00,Wunderground v.1.15,2013-08-15 14:20:00,
2013-08-15 10:30:00,65.7,60.1,30.07,ENE,71,0.0,1.0,82,0.00,,,0.00,Wunderground v.1.15,2013-08-15 14:30:00,
2013-08-15 10:40:00,65.9,60.6,30.07,ENE,71,0.0,0.0,83,0.00,,,0.00,Wunderground v.1.15,2013-08-15 14:40:00,
2013-08-15 10:50:00,66.4,61.1,30.08,ENE,71,0.0,1.0,83,0.00,,,0.00,Wunderground v.1.15,2013-08-15 14:50:00,
2013-08-15 11:00:00,67.3,61.6,30.08,ENE,71,0.0,0.0,82,0.00,,,0.00,Wunderground v.1.15,2013-08-15 15:00:00,
2013-08-15 11:10:00,68.1,61.3,30.08,ENE,71,0.0,0.0,79,0.00,,,0.00,Wunderground v.1.15,2013-08-15 15:10:00,
2013-08-15 11:30:00,69.8,62.6,30.08,ENE,63,0.0,0.0,78,0.00,,,0.00,Wunderground v.1.15,2013-08-15 15:30:00,
2013-08-15 11:40:00,71.1,63.5,30.08,ENE,63,0.0,0.0,77,0.00,,,0.00,Wunderground v.1.15,2013-08-15 15:40:00,
2013-08-15 11:50:00,72.2,64.2,30.07,ENE,63,0.0,2.0,76,0.00,,,0.00,Wunderground v.1.15,2013-08-15 15:50:00,
2013-08-15 12:00:00,72.7,65.1,30.07,ENE,63,0.0,0.0,77,0.00,,,0.00,Wunderground v.1.15,2013-08-15 16:00:00,
2013-08-15 12:10:00,72.9,63.7,30.07,ENE,63,0.0,0.0,73,0.00,,,0.00,Wunderground v.1.15,2013-08-15 16:10:00,
2013-08-15 12:30:00,72.8,64.0,30.06,ENE,63,0.0,0.0,74,0.00,,,0.00,Wunderground v.1.15,2013-08-15 16:30:00,
2013-08-15 12:40:00,73.2,63.6,30.06,ENE,63,0.0,0.0,72,0.00,,,0.00,Wunderground v.1.15,2013-08-15 16:40:00,
2013-08-15 12:50:00,74.1,64.9,30.06,ENE,63,0.0,0.0,73,0.00,,,0.00,Wunderground v.1.15,2013-08-15 16:50:00,
2013-08-15 13:00:00,74.3,64.7,30.06,ENE,71,0.0,0.0,72,0.00,,,0.00,Wunderground v.1.15,2013-08-15 17:00:00,
2013-08-15 13:10:00,74.3,64.7,30.06,ENE,71,0.0,0.0,72,0.00,,,0.00,Wunderground v.1.15,2013-08-15 17:10:00,
2013-08-15 13:30:00,74.1,66.4,30.05,ENE,71,0.0,0.0,77,0.00,,,0.00,Wunderground v.1.15,2013-08-15 17:30:00,
2013-08-15 13:40:00,74.0,65.6,30.05,ENE,71,0.0,0.0,75,0.00,,,0.00,Wunderground v.1.15,2013-08-15 17:40:00,
2013-08-15 13:50:00,74.1,66.4,30.05,ENE,71,0.0,0.0,77,0.00,,,0.00,Wunderground v.1.15,2013-08-15 17:50:00,
2013-08-15 14:00:00,74.6,65.4,30.05,ENE,71,0.0,0.0,73,0.00,,,0.00,Wunderground v.1.15,2013-08-15 18:00:00,
2013-08-15 14:10:00,74.6,65.8,30.05,ENE,71,0.0,0.0,74,0.00,,,0.00,Wunderground v.1.15,2013-08-15 18:10:00,
2013-08-15 14:30:00,74.3,67.4,30.04,ENE,71,0.0,0.0,79,0.00,,,0.00,Wunderground v.1.15,2013-08-15 18:30:00,
2013-08-15 14:40:00,74.3,67.0,30.04,ENE,71,0.0,0.0,78,0.00,,,0.00,Wunderground v.1.15,2013-08-15 18:40:00,
2013-08-15 14:50:00,74.3,67.7,30.04,ENE,71,0.0,0.0,80,0.00,,,0.00,Wunderground v.1.15,2013-08-15 18:50:00,
2013-08-15 15:00:00,74.4,68.2,30.03,ENE,71,0.0,0.0,81,0.00,,,0.00,Wunderground v.1.15,2013-08-15 19:00:00,
2013-08-15 15:10:00,74.3,68.1,30.03,ENE,71,0.0,0.0,81,0.00,,,0.00,Wunderground v.1.15,2013-08-15 19:10:00,
2013-08-15 15:20:00,74.2,66.9,30.03,ENE,71,0.0,0.0,78,0.00,,,0.00,Wunderground v.1.15,2013-08-15 19:20:00,
2013-08-15 15:40:00,74.5,67.2,30.02,ENE,71,0.0,0.0,78,0.00,,,0.00,Wunderground v.1.15,2013-08-15 19:40:00,
2013-08-15 15:50:00,74.6,67.3,30.02,ENE,71,0.0,0.0,78,0.00,,,0.00,Wunderground v.1.15,2013-08-15 19:50:00,
2013-08-15 16:00:00,74.8,68.9,30.02,ENE,71,0.0,0.0,82,0.00,,,0.00,Wunderground v.1.15,2013-08-15 20:00:00,
2013-08-15 16:10:00,74.8,68.2,30.02,ENE,71,0.0,0.0,80,0.00,,,0.00,Wunderground v.1.15,2013-08-15 20:10:00,
2013-08-15 16:30:00,74.6,68.4,30.02,ENE,71,0.0,0.0,81,0.00,,,0.00,Wunderground v.1.15,2013-08-15 20:30:00,
2013-08-15 16:40:00,74.6,68.7,30.02,ENE,71,0.0,0.0,82,0.00,,,0.00,Wunderground v.1.15,2013-08-15 20:40:00,
2013-08-15 16:50:00,74.7,68.8,30.02,ENE,71,0.0,0.0,82,0.00,,,0.00,Wunderground v.1.15,2013-08-15 20:50:00,
2013-08-15 17:00:00,74.8,68.9,30.02,ENE,71,0.0,0.0,82,0.00,,,0.00,Wunderground v.1.15,2013-08-15 21:00:00,
2013-08-15 17:10:00,74.8,68.9,30.02,ENE,71,0.0,0.0,82,0.00,,,0.00,Wunderground v.1.15,2013-08-15 21:10:00,
2013-08-15 17:20:00,74.7,68.5,30.01,ENE,71,0.0,0.0,81,0.00,,,0.00,Wunderground v.1.15,2013-08-15 21:20:00,
2013-08-15 17:30:00,74.8,68.6,30.02,ENE,71,0.0,0.0,81,0.00,,,0.00,Wunderground v.1.15,2013-08-15 21:30:00,
2013-08-15 17:40:00,74.8,68.9,30.02,ENE,71,0.0,0.0,82,0.00,,,0.00,Wunderground v.1.15,2013-08-15 21:40:00,
2013-08-15 17:50:00,74.6,69.1,30.02,ENE,71,0.0,0.0,83,0.00,,,0.00,Wunderground v.1.15,2013-08-15 21:50:00,
2013-08-15 18:00:00,74.1,68.6,30.02,ENE,71,0.0,0.0,83,0.00,,,0.00,Wunderground v.1.15,2013-08-15 22:00:00,
2013-08-15 18:10:00,73.9,68.8,30.02,ENE,71,0.0,0.0,84,0.00,,,0.00,Wunderground v.1.15,2013-08-15 22:10:00,
2013-08-15 18:20:00,73.7,67.9,30.02,ENE,71,0.0,0.0,82,0.00,,,0.00,Wunderground v.1.15,2013-08-15 22:20:00,
2013-08-15 18:30:00,73.5,66.6,30.02,ENE,71,0.0,0.0,79,0.00,,,0.00,Wunderground v.1.15,2013-08-15 22:30:00,
2013-08-15 18:40:00,73.4,66.9,30.02,ENE,71,0.0,0.0,80,0.00,,,0.00,Wunderground v.1.15,2013-08-15 22:40:00,
2013-08-15 18:50:00,73.3,67.1,30.02,ENE,71,0.0,0.0,81,0.00,,,0.00,Wunderground v.1.15,2013-08-15 22:50:00,
2013-08-15 19:00:00,73.0,66.1,30.02,North,355,0.0,1.0,79,0.00,,,0.00,Wunderground v.1.15,2013-08-15 23:00:00,
2013-08-15 19:10:00,72.8,66.6,30.02,North,355,0.0,0.0,81,0.00,,,0.00,Wunderground v.1.15,2013-08-15 23:10:00,
2013-08-15 19:20:00,72.7,66.2,30.02,North,355,0.0,1.0,80,0.00,,,0.00,Wunderground v.1.15,2013-08-15 23:20:00,
2013-08-15 19:30:00,72.5,65.6,30.02,North,355,0.0,1.0,79,0.00,,,0.00,Wunderground v.1.15,2013-08-15 23:30:00,
2013-08-15 19:40:00,72.3,65.4,30.03,North,355,0.0,0.0,79,0.00,,,0.00,Wunderground v.1.15,2013-08-15 23:40:00,
2013-08-15 19:50:00,72.2,65.7,30.03,North,355,0.0,0.0,80,0.00,,,0.00,Wunderground v.1.15,2013-08-15 23:50:00,
2013-08-15 20:10:00,71.7,64.8,30.04,North,355,0.0,0.0,79,0.00,,,0.00,Wunderground v.1.15,2013-08-16 00:10:00,
2013-08-15 20:20:00,71.4,63.8,30.04,North,355,0.0,0.0,77,0.00,,,0.00,Wunderground v.1.15,2013-08-16 00:20:00,
2013-08-15 20:30:00,71.2,64.0,30.05,North,355,0.0,0.0,78,0.00,,,0.00,Wunderground v.1.15,2013-08-16 00:30:00,
2013-08-15 20:40:00,70.9,63.7,30.05,North,355,0.0,0.0,78,0.00,,,0.00,Wunderground v.1.15,2013-08-16 00:40:00,
2013-08-15 20:50:00,70.5,63.7,30.05,North,355,0.0,0.0,79,0.00,,,0.00,Wunderground v.1.15,2013-08-16 00:50:00,
2013-08-15 21:00:00,70.3,63.5,30.05,North,355,0.0,0.0,79,0.00,,,0.00,Wunderground v.1.15,2013-08-16 01:00:00,
2013-08-15 21:10:00,70.1,63.3,30.05,North,355,0.0,0.0,79,0.00,,,0.00,Wunderground v.1.15,2013-08-16 01:10:00,
2013-08-15 21:20:00,69.7,63.6,30.05,North,355,0.0,0.0,81,0.00,,,0.00,Wunderground v.1.15,2013-08-16 01:20:00,
2013-08-15 21:40:00,69.1,64.1,30.06,North,355,0.0,0.0,84,0.00,,,0.00,Wunderground v.1.15,2013-08-16 01:40:00,
2013-08-15 21:50:00,68.8,64.4,30.06,North,355,0.0,0.0,86,0.00,,,0.00,Wunderground v.1.15,2013-08-16 01:50:00,
2013-08-15 22:00:00,68.4,64.4,30.07,North,355,0.0,0.0,87,0.00,,,0.00,Wunderground v.1.15,2013-08-16 02:00:00,
2013-08-15 22:10:00,68.0,64.3,30.07,North,355,0.0,0.0,88,0.00,,,0.00,Wunderground v.1.15,2013-08-16 02:10:00,
2013-08-15 22:20:00,67.7,64.0,30.07,North,355,0.0,0.0,88,0.00,,,0.00,Wunderground v.1.15,2013-08-16 02:20:00,
2013-08-15 22:30:00,67.4,63.7,30.07,North,355,0.0,0.0,88,0.00,,,0.00,Wunderground v.1.15,2013-08-16 02:30:00,
2013-08-15 22:40:00,67.3,63.9,30.07,North,355,0.0,0.0,89,0.00,,,0.00,Wunderground v.1.15,2013-08-16 02:40:00,
2013-08-15 22:50:00,67.4,63.1,30.07,North,5,0.0,0.0,86,0.00,,,0.00,Wunderground v.1.15,2013-08-16 02:50:00,
2013-08-15 23:00:00,67.7,63.0,30.07,North,5,0.0,0.0,85,0.00,,,0.00,Wunderground v.1.15,2013-08-16 03:00:00,
2013-08-15 23:10:00,67.9,63.2,30.07,North,5,0.0,0.0,85,0.00,,,0.00,Wunderground v.1.15,2013-08-16 03:10:00,
2013-08-15 23:20:00,67.9,61.9,30.07,North,5,0.0,0.0,81,0.00,,,0.00,Wunderground v.1.15,2013-08-16 03:20:00,
2013-08-15 23:30:00,68.0,61.6,30.07,North,355,0.0,1.0,80,0.00,,,0.00,Wunderground v.1.15,2013-08-16 03:30:00,
2013-08-15 23:40:00,67.9,62.5,30.08,North,355,0.0,1.0,83,0.00,,,0.00,Wunderground v.1.15,2013-08-16 03:40:00,
2013-08-15 23:50:00,67.5,61.8,30.07,WNW,294,1.0,1.0,82,0.00,,,0.00,Wunderground v.1.15,2013-08-16 03:50:00,